createdAt,value
2022-10-12T00:01:55.338Z,22.38
2022-10-12T00:04:22.384Z,28.58
2022-10-12T00:06:49.507Z,17.65
2022-10-12T00:09:16.656Z,5.60
2022-10-12T00:11:44.191Z,7.63
2022-10-12T00:14:11.142Z,8.25
2022-10-12T00:16:38.193Z,36.55
2022-10-12T00:19:05.175Z,22.17
2022-10-12T00:21:32.229Z,24.27
2022-10-12T00:24:01.229Z,11.00
2022-10-12T00:26:29.331Z,8.13
2022-10-12T00:29:03.250Z,8.50
2022-10-12T00:31:31.386Z,7.40
2022-10-12T00:34:01.288Z,8.48
2022-10-12T00:36:32.657Z,13.88
2022-10-12T00:39:00.534Z,14.98
2022-10-12T00:41:33.933Z,13.18
2022-10-12T00:44:01.283Z,13.55
2022-10-12T00:46:33.757Z,14.68
2022-10-12T00:49:09.614Z,21.83
2022-10-12T00:51:38.165Z,8.15
2022-10-12T00:54:08.635Z,10.93
2022-10-12T00:56:40.392Z,20.80
2022-10-12T00:59:11.139Z,12.52
2022-10-12T01:01:39.179Z,10.25
2022-10-12T01:04:06.903Z,16.48
2022-10-12T01:06:34.582Z,14.65
2022-10-12T01:09:02.461Z,12.20
2022-10-12T01:11:29.456Z,8.55
2022-10-12T01:13:57.972Z,12.32
2022-10-12T01:16:46.802Z,8.45
2022-10-12T01:19:42.451Z,10.73
2022-10-12T01:22:14.543Z,11.95
2022-10-12T01:24:53.088Z,14.48
2022-10-12T01:27:44.157Z,6.75
2022-10-12T01:30:24.952Z,9.75
2022-10-12T01:33:03.315Z,8.20
2022-10-12T01:35:51.415Z,8.98
2022-10-12T01:38:50.728Z,12.38
2022-10-12T01:41:39.219Z,10.15
2022-10-12T01:44:06.508Z,8.43
2022-10-12T01:46:33.388Z,8.00
2022-10-12T01:49:02.158Z,13.68
2022-10-12T01:51:55.525Z,7.97
2022-10-12T01:54:25.148Z,13.27
2022-10-12T01:57:09.170Z,8.52
2022-10-12T02:00:12.585Z,14.13
2022-10-12T02:03:03.686Z,11.80
2022-10-12T02:05:52.634Z,10.40
2022-10-12T02:08:32.301Z,17.23
2022-10-12T02:11:08.116Z,17.17
2022-10-12T02:13:42.475Z,14.23
2022-10-12T02:16:14.639Z,11.73
2022-10-12T02:18:49.922Z,15.23
2022-10-12T02:21:24.059Z,13.95
2022-10-12T02:23:53.294Z,9.90
2022-10-12T02:26:21.907Z,36.42
2022-10-12T02:28:50.736Z,10.73
2022-10-12T02:31:32.463Z,23.33
2022-10-12T02:34:11.619Z,16.58
2022-10-12T02:36:46.887Z,11.52
2022-10-12T02:39:20.356Z,13.20
2022-10-12T02:41:51.138Z,13.32
2022-10-12T02:44:26.303Z,12.02
2022-10-12T02:46:55.301Z,18.88
2022-10-12T02:49:26.166Z,16.60
2022-10-12T02:51:54.983Z,18.25
2022-10-12T02:54:22.104Z,13.40
2022-10-12T02:56:49.241Z,20.05
2022-10-12T02:59:18.203Z,35.05
2022-10-12T03:01:45.221Z,12.77
2022-10-12T03:04:12.197Z,15.80
2022-10-12T03:06:39.226Z,21.35
2022-10-12T03:09:06.144Z,19.83
2022-10-12T03:11:33.060Z,15.20
2022-10-12T03:14:00.174Z,19.50
2022-10-12T03:16:27.514Z,18.17
2022-10-12T03:18:54.970Z,15.70
2022-10-12T03:21:22.037Z,12.45
2022-10-12T03:23:48.940Z,13.70
2022-10-12T03:26:15.879Z,36.20
2022-10-12T03:28:42.915Z,17.02
2022-10-12T03:31:10.083Z,12.50
2022-10-12T03:33:37.097Z,15.25
2022-10-12T03:36:04.407Z,15.82
2022-10-12T03:38:31.353Z,21.75
2022-10-12T03:41:01.761Z,15.55
2022-10-12T03:43:31.303Z,26.63
2022-10-12T03:45:58.437Z,23.08
2022-10-12T03:48:25.343Z,21.60
2022-10-12T03:50:53.209Z,22.92
2022-10-12T03:53:20.669Z,27.50
2022-10-12T03:55:47.642Z,21.60
2022-10-12T03:58:14.872Z,15.23
2022-10-12T04:00:41.942Z,20.83
2022-10-12T04:03:08.832Z,25.10
2022-10-12T04:05:35.796Z,33.15
2022-10-12T04:08:02.747Z,15.93
2022-10-12T04:10:29.710Z,17.48
2022-10-12T04:12:57.628Z,19.85
2022-10-12T04:15:24.674Z,20.98
2022-10-12T04:17:51.599Z,43.42
2022-10-12T04:20:18.612Z,23.20
2022-10-12T04:22:45.612Z,21.60
2022-10-12T04:25:12.728Z,26.98
2022-10-12T04:27:40.186Z,29.15
2022-10-12T04:30:08.000Z,46.90
2022-10-12T04:32:34.971Z,15.57
2022-10-12T04:35:02.012Z,16.00
2022-10-12T04:37:29.028Z,48.40
2022-10-12T04:39:56.218Z,32.10
2022-10-12T04:42:23.093Z,53.08
2022-10-12T04:44:50.110Z,25.98
2022-10-12T04:47:17.072Z,32.65
2022-10-12T04:49:43.992Z,33.08
2022-10-12T04:52:10.951Z,25.45
2022-10-12T04:54:37.914Z,18.75
2022-10-12T04:57:04.971Z,24.40
2022-10-12T04:59:31.870Z,47.70
2022-10-12T05:01:58.963Z,24.92
2022-10-12T05:04:25.936Z,28.27
2022-10-12T05:06:52.920Z,19.40
2022-10-12T05:09:19.845Z,36.60
2022-10-12T05:11:46.778Z,32.42
2022-10-12T05:14:13.718Z,50.67
2022-10-12T05:16:40.641Z,24.27
2022-10-12T05:19:07.668Z,46.97
2022-10-12T05:21:34.809Z,77.25
2022-10-12T05:24:01.746Z,65.38
2022-10-12T05:26:28.641Z,18.27
2022-10-12T05:28:55.695Z,40.60
2022-10-12T05:31:22.764Z,16.52
2022-10-12T05:33:50.175Z,53.75
2022-10-12T05:36:17.220Z,39.67
2022-10-12T05:38:44.167Z,19.70
2022-10-12T05:41:11.230Z,31.52
2022-10-12T05:43:38.219Z,21.65
2022-10-12T05:46:05.369Z,17.00
2022-10-12T05:48:33.452Z,33.60
2022-10-12T05:51:00.510Z,22.75
2022-10-12T05:53:27.505Z,21.65
2022-10-12T05:55:57.336Z,20.83
2022-10-12T05:58:25.405Z,24.75
2022-10-12T06:00:52.849Z,37.88
2022-10-12T06:03:25.387Z,48.38
2022-10-12T06:05:53.093Z,22.45
2022-10-12T06:08:20.324Z,21.77
2022-10-12T06:10:50.715Z,40.55
2022-10-12T06:13:19.776Z,24.27
2022-10-12T06:15:47.460Z,53.88
2022-10-12T06:18:15.577Z,28.20
2022-10-12T06:20:56.537Z,30.45
2022-10-12T06:23:35.992Z,21.65
2022-10-12T06:26:03.209Z,21.45
2022-10-12T06:28:30.397Z,36.63
2022-10-12T06:30:59.778Z,26.70
2022-10-12T06:33:27.778Z,37.42
2022-10-12T06:35:55.449Z,28.95
2022-10-12T06:38:22.929Z,79.28
2022-10-12T06:40:49.911Z,53.35
2022-10-12T06:43:17.044Z,35.60
2022-10-12T06:45:44.094Z,34.17
2022-10-12T06:48:14.869Z,31.67
2022-10-12T06:50:45.087Z,29.02
2022-10-12T06:53:12.084Z,20.85
2022-10-12T06:55:41.978Z,23.27
2022-10-12T06:58:09.067Z,22.75
2022-10-12T07:00:36.528Z,24.02
2022-10-12T07:03:03.992Z,20.10
2022-10-12T07:05:31.038Z,19.88
2022-10-12T07:07:58.197Z,21.58
2022-10-12T07:10:25.543Z,17.27
2022-10-12T07:12:52.557Z,18.48
2022-10-12T07:15:19.707Z,20.75
2022-10-12T07:17:46.710Z,19.75
2022-10-12T07:20:13.909Z,20.67
2022-10-12T07:22:40.837Z,17.17
2022-10-12T07:25:08.397Z,20.10
2022-10-12T07:27:35.539Z,36.38
2022-10-12T07:30:02.862Z,18.85
2022-10-12T07:32:29.903Z,20.92
2022-10-12T07:34:57.258Z,25.02
2022-10-12T07:37:24.169Z,19.50
2022-10-12T07:39:57.215Z,22.65
2022-10-12T07:42:25.464Z,22.67
2022-10-12T07:44:52.560Z,20.15
2022-10-12T07:47:19.850Z,17.73
2022-10-12T07:49:46.868Z,17.60
2022-10-12T07:52:13.839Z,17.50
2022-10-12T07:54:41.461Z,20.70
2022-10-12T07:57:08.990Z,16.05
2022-10-12T07:59:36.009Z,19.52
2022-10-12T08:02:03.145Z,20.73
2022-10-12T08:04:30.279Z,18.63
2022-10-12T08:06:58.119Z,22.60
2022-10-12T08:09:25.193Z,17.17
2022-10-12T08:11:52.185Z,26.98
2022-10-12T08:14:19.104Z,23.20
2022-10-12T08:16:46.233Z,16.20
2022-10-12T08:19:13.785Z,19.38
2022-10-12T08:21:42.755Z,20.85
2022-10-12T08:24:11.141Z,21.75
2022-10-12T08:26:39.082Z,25.75
2022-10-12T08:29:08.425Z,17.90
2022-10-12T08:31:35.988Z,18.77
2022-10-12T08:34:03.747Z,20.73
2022-10-12T08:36:31.004Z,19.00
2022-10-12T08:38:58.062Z,17.58
2022-10-12T08:41:30.760Z,17.17
2022-10-12T08:44:12.838Z,20.90
2022-10-12T08:46:40.110Z,15.93
2022-10-12T08:49:14.368Z,18.08
2022-10-12T08:52:03.372Z,15.60
2022-10-12T08:54:38.939Z,17.58
2022-10-12T08:57:15.363Z,12.43
2022-10-12T08:59:42.317Z,18.98
2022-10-12T09:02:45.082Z,19.67
2022-10-12T09:05:27.656Z,20.33
2022-10-12T09:08:07.145Z,22.05
2022-10-12T09:11:26.703Z,16.73
2022-10-12T09:14:11.304Z,16.83
2022-10-12T09:16:44.473Z,19.90
2022-10-12T09:19:19.513Z,33.75
2022-10-12T09:21:48.571Z,19.48
2022-10-12T09:24:20.025Z,24.08
2022-10-12T09:26:50.643Z,14.57
2022-10-12T09:29:31.560Z,20.00
2022-10-12T09:32:10.654Z,16.17
2022-10-12T09:34:37.896Z,18.15
2022-10-12T09:37:05.602Z,18.75
2022-10-12T09:39:36.201Z,16.75
2022-10-12T09:42:03.193Z,18.35
2022-10-12T09:44:36.165Z,17.33
2022-10-12T09:47:06.478Z,18.40
2022-10-12T09:49:50.972Z,17.67
2022-10-12T09:52:23.155Z,18.35
2022-10-12T09:55:04.879Z,20.55
2022-10-12T09:57:41.872Z,19.92
2022-10-12T10:00:35.015Z,15.65
2022-10-12T10:03:03.090Z,19.52
2022-10-12T10:05:38.020Z,17.00
2022-10-12T10:08:14.314Z,18.10
2022-10-12T10:10:53.148Z,13.52
2022-10-12T10:13:22.338Z,15.48
2022-10-12T10:15:52.216Z,17.98
2022-10-12T10:18:25.423Z,19.13
2022-10-12T10:20:56.031Z,22.88
2022-10-12T10:23:39.579Z,13.82
2022-10-12T10:26:08.335Z,15.77
2022-10-12T10:28:38.102Z,11.77
2022-10-12T10:31:07.909Z,64.15
2022-10-12T10:33:36.499Z,11.70
2022-10-12T10:36:06.613Z,10.40
2022-10-12T10:38:54.256Z,10.95
2022-10-12T10:41:27.526Z,13.63
2022-10-12T10:43:54.995Z,12.15
2022-10-12T10:46:31.939Z,8.93
2022-10-12T10:49:07.493Z,11.63
2022-10-12T10:51:49.503Z,15.73
2022-10-12T10:54:24.873Z,19.38
2022-10-12T10:57:02.705Z,10.10
2022-10-12T11:00:02.225Z,10.20
2022-10-12T11:02:58.609Z,10.20
2022-10-12T11:05:30.527Z,12.32
2022-10-12T11:08:20.348Z,11.93
2022-10-12T11:11:02.829Z,11.25
2022-10-12T11:13:44.875Z,9.20
2022-10-12T11:16:29.139Z,20.05
2022-10-12T11:18:59.088Z,7.78
2022-10-12T11:21:51.558Z,11.07
2022-10-12T11:24:20.789Z,15.27
2022-10-12T11:27:05.856Z,10.93
2022-10-12T11:29:36.105Z,11.30
2022-10-12T11:32:08.202Z,11.93
2022-10-12T11:34:48.810Z,7.25
2022-10-12T11:37:22.636Z,12.60
2022-10-12T11:39:53.831Z,9.73
2022-10-12T11:42:31.357Z,8.88
2022-10-12T11:45:02.407Z,11.00
2022-10-12T11:47:47.388Z,7.05
2022-10-12T11:50:45.633Z,12.27
2022-10-12T11:53:34.591Z,8.40
2022-10-12T11:56:19.759Z,9.65
2022-10-12T11:59:00.543Z,8.98
2022-10-12T12:01:58.275Z,7.68
2022-10-12T12:04:43.605Z,10.93
2022-10-12T12:07:23.337Z,10.82
2022-10-12T12:09:51.903Z,16.20
2022-10-12T12:12:25.531Z,6.88
2022-10-12T12:14:55.487Z,6.38
2022-10-12T12:17:22.517Z,16.00
2022-10-12T12:19:54.612Z,9.80
2022-10-12T12:22:36.915Z,8.23
2022-10-12T12:25:13.042Z,9.43
2022-10-12T12:27:51.511Z,7.25
2022-10-12T12:30:18.533Z,7.15
2022-10-12T12:32:50.973Z,10.73
2022-10-12T12:35:52.235Z,6.10
2022-10-12T12:38:30.738Z,10.35
2022-10-12T12:41:09.184Z,7.93
2022-10-12T12:43:49.254Z,10.40
2022-10-12T12:46:17.012Z,9.32
2022-10-12T12:48:43.966Z,7.40
2022-10-12T12:51:28.531Z,6.95
2022-10-12T12:54:02.060Z,6.07
2022-10-12T12:56:44.240Z,8.07
2022-10-12T12:59:35.783Z,6.78
2022-10-12T13:02:40.500Z,8.07
2022-10-12T13:05:41.353Z,6.65
2022-10-12T13:08:32.828Z,6.07
2022-10-12T13:11:22.572Z,8.65
2022-10-12T13:14:20.164Z,7.35
2022-10-12T13:17:30.659Z,11.70
2022-10-12T13:19:36.663Z,7.32
2022-10-12T13:22:21.141Z,9.77
2022-10-12T13:24:57.798Z,13.45
2022-10-12T13:27:34.044Z,7.72
2022-10-12T13:30:07.309Z,8.18
2022-10-12T13:32:42.509Z,10.73
2022-10-12T13:35:18.900Z,6.85
2022-10-12T13:37:45.936Z,6.07
2022-10-12T13:40:35.997Z,8.20
2022-10-12T13:43:29.025Z,5.63
2022-10-12T13:45:56.525Z,8.43
2022-10-12T13:48:53.791Z,9.88
2022-10-12T13:51:24.118Z,6.75
2022-10-12T13:53:51.064Z,6.38
2022-10-12T13:56:25.050Z,4.72
2022-10-12T13:59:05.368Z,4.90
2022-10-12T14:01:51.987Z,2.67
2022-10-12T14:04:19.144Z,6.10
2022-10-12T14:07:17.917Z,2.50
2022-10-12T14:09:51.848Z,4.15
2022-10-12T14:12:24.517Z,3.50
2022-10-12T14:14:53.234Z,3.35
2022-10-12T14:17:21.160Z,3.28
2022-10-12T14:19:55.323Z,2.45
2022-10-12T14:22:29.910Z,8.47
2022-10-12T14:25:08.966Z,2.30
2022-10-12T14:27:38.861Z,9.80
2022-10-12T14:30:17.563Z,2.40
2022-10-12T14:32:44.923Z,1.95
2022-10-12T14:35:21.847Z,2.10
2022-10-12T14:37:50.929Z,7.57
2022-10-12T14:40:39.598Z,5.72
2022-10-12T14:43:27.941Z,1.95
2022-10-12T14:45:54.956Z,3.58
2022-10-12T14:48:23.523Z,3.22
2022-10-12T14:50:51.041Z,4.28
2022-10-12T14:53:17.962Z,7.22
2022-10-12T14:55:44.977Z,2.70
2022-10-12T14:58:16.943Z,2.88
2022-10-12T15:00:44.399Z,2.10
2022-10-12T15:03:11.478Z,13.15
2022-10-12T15:05:38.486Z,12.48
2022-10-12T15:08:09.142Z,2.53
2022-10-12T15:10:37.400Z,8.10
2022-10-12T15:13:04.391Z,5.38
2022-10-12T15:15:42.755Z,6.03
2022-10-12T15:18:10.040Z,3.85
2022-10-12T15:20:37.767Z,4.80
2022-10-12T15:23:05.770Z,2.45
2022-10-12T15:25:35.561Z,11.68
2022-10-12T15:28:04.003Z,3.70
2022-10-12T15:30:31.942Z,5.28
2022-10-12T15:32:58.887Z,3.45
2022-10-12T15:35:28.192Z,7.68
2022-10-12T15:37:58.266Z,10.93
2022-10-12T15:40:28.529Z,8.63
2022-10-12T15:42:55.673Z,10.25
2022-10-12T15:45:24.100Z,5.85
2022-10-12T15:47:52.331Z,11.13
2022-10-12T15:50:23.577Z,7.38
2022-10-12T15:52:50.917Z,3.85
2022-10-12T15:55:21.312Z,2.75
2022-10-12T15:57:48.938Z,4.70
2022-10-12T16:00:17.797Z,2.60
2022-10-12T16:02:45.717Z,2.53
2022-10-12T16:05:31.075Z,3.42
2022-10-12T16:10:39.239Z,8.30
2022-10-12T16:13:08.604Z,3.90
2022-10-12T16:15:36.629Z,3.15
2022-10-12T16:18:04.942Z,4.00
2022-10-12T16:20:33.899Z,4.13
2022-10-12T16:23:01.531Z,2.40
2022-10-12T16:25:29.024Z,5.68
2022-10-12T16:27:57.467Z,11.52
2022-10-12T16:30:25.449Z,2.38
2022-10-12T16:32:53.214Z,2.45
2022-10-12T16:35:23.236Z,10.68
2022-10-12T16:37:50.295Z,3.47
2022-10-12T16:40:17.242Z,3.00
2022-10-12T16:42:44.241Z,3.95
2022-10-12T16:45:12.086Z,3.35
2022-10-12T16:47:42.725Z,2.88
2022-10-12T16:50:10.656Z,9.48
2022-10-12T16:52:37.714Z,9.07
2022-10-12T16:55:05.914Z,3.85
2022-10-12T16:57:32.830Z,5.30
2022-10-12T17:00:00.037Z,5.93
2022-10-12T17:02:29.974Z,3.65
2022-10-12T17:04:56.824Z,4.07
2022-10-12T17:07:23.820Z,8.23
2022-10-12T17:09:51.688Z,4.40
2022-10-12T17:12:19.062Z,6.70
2022-10-12T17:14:46.172Z,4.65
2022-10-12T17:17:13.116Z,7.53
2022-10-12T17:19:40.917Z,3.33
2022-10-12T17:22:10.404Z,10.70
2022-10-12T17:24:39.194Z,10.80
2022-10-12T17:27:07.674Z,5.97
2022-10-12T17:29:40.306Z,5.13
2022-10-12T17:32:10.130Z,6.90
2022-10-12T17:34:44.902Z,7.53
2022-10-12T17:37:13.829Z,13.20
2022-10-12T17:39:44.998Z,6.35
2022-10-12T17:42:12.528Z,8.98
2022-10-12T17:44:39.378Z,5.38
2022-10-12T17:47:06.393Z,22.00
2022-10-12T17:49:33.603Z,4.05
2022-10-12T17:52:00.486Z,8.43
2022-10-12T17:54:27.510Z,4.47
2022-10-12T17:56:55.991Z,5.80
2022-10-12T17:59:23.075Z,10.10
2022-10-12T18:01:51.773Z,7.47
2022-10-12T18:04:19.672Z,5.20
2022-10-12T18:06:47.069Z,6.43
2022-10-12T18:09:14.102Z,10.30
2022-10-12T18:11:41.411Z,6.38
2022-10-12T18:14:10.176Z,4.50
2022-10-12T18:16:37.825Z,4.35
2022-10-12T18:19:06.820Z,4.20
2022-10-12T18:21:34.463Z,5.63
2022-10-12T18:24:07.115Z,7.82
2022-10-12T18:26:34.327Z,7.63
2022-10-12T18:29:02.547Z,9.75
2022-10-12T18:31:30.336Z,5.57
2022-10-12T18:33:59.313Z,8.43
2022-10-12T18:36:27.504Z,6.85
2022-10-12T18:38:54.946Z,4.22
2022-10-12T18:41:23.654Z,4.82
2022-10-12T18:43:55.479Z,5.72
2022-10-12T18:46:22.394Z,6.35
2022-10-12T18:48:49.503Z,9.88
2022-10-12T18:51:20.955Z,5.97
2022-10-12T18:53:48.418Z,4.63
2022-10-12T18:56:15.676Z,7.60
2022-10-12T18:58:42.678Z,6.00
2022-10-12T19:01:20.013Z,4.05
2022-10-12T19:03:48.415Z,7.38
2022-10-12T19:06:21.948Z,8.73
2022-10-12T19:08:49.570Z,6.00
2022-10-12T19:11:18.783Z,6.03
2022-10-12T19:13:55.102Z,9.07
2022-10-12T19:16:22.798Z,4.18
2022-10-12T19:18:54.707Z,4.93
2022-10-12T19:21:21.661Z,8.63
2022-10-12T19:23:48.675Z,5.57
2022-10-12T19:26:23.169Z,8.00
2022-10-12T19:28:51.756Z,4.22
2022-10-12T19:31:25.383Z,5.57
2022-10-12T19:33:58.770Z,3.90
2022-10-12T19:36:26.229Z,7.72
2022-10-12T19:38:57.087Z,3.17
2022-10-12T19:41:25.163Z,2.92
2022-10-12T19:43:53.431Z,5.88
2022-10-12T19:46:20.805Z,1.95
2022-10-12T19:48:50.252Z,2.97
2022-10-12T19:51:18.382Z,3.90
2022-10-12T19:53:45.692Z,2.20
2022-10-12T19:56:20.995Z,1.58
2022-10-12T19:58:50.693Z,6.05
2022-10-12T20:01:20.857Z,4.72
2022-10-12T20:03:50.056Z,8.98
2022-10-12T20:06:19.379Z,1.88
2022-10-12T20:08:46.836Z,2.28
2022-10-12T20:11:19.612Z,2.97
2022-10-12T20:13:49.221Z,1.70
2022-10-12T20:16:18.687Z,1.83
2022-10-12T20:18:45.988Z,1.40
2022-10-12T20:21:15.493Z,5.85
2022-10-12T20:23:43.312Z,1.85
2022-10-12T20:26:15.076Z,4.00
2022-10-12T20:28:42.299Z,4.57
2022-10-12T20:31:09.895Z,1.67
2022-10-12T20:33:38.807Z,4.40
2022-10-12T20:36:18.664Z,1.65
2022-10-12T20:38:45.630Z,4.47
2022-10-12T20:41:15.156Z,1.88
2022-10-12T20:43:42.649Z,3.50
2022-10-12T20:46:13.489Z,0.95
2022-10-12T20:48:41.165Z,5.60
2022-10-12T20:51:09.812Z,4.45
2022-10-12T20:53:37.932Z,4.00
2022-10-12T20:56:08.894Z,3.83
2022-10-12T20:58:35.880Z,3.45
2022-10-12T21:01:07.698Z,2.85
2022-10-12T21:03:35.111Z,1.50
2022-10-12T21:06:07.124Z,2.90
2022-10-12T21:08:34.783Z,1.50
2022-10-12T21:11:03.218Z,1.20
2022-10-12T21:13:34.942Z,1.63
2022-10-12T21:16:02.074Z,1.25
2022-10-12T21:18:32.849Z,9.20
2022-10-12T21:21:25.272Z,1.33
2022-10-12T21:23:57.516Z,2.05
2022-10-12T21:26:28.467Z,1.52
2022-10-12T21:28:55.611Z,1.67
2022-10-12T21:31:23.411Z,1.38
2022-10-12T21:33:51.503Z,1.45
2022-10-12T21:36:22.149Z,1.85
2022-10-12T21:38:50.305Z,1.92
2022-10-12T21:41:20.606Z,5.28
2022-10-12T21:43:49.198Z,6.28
2022-10-12T21:46:27.527Z,11.20
2022-10-12T21:48:55.309Z,5.57
2022-10-12T21:51:23.894Z,2.15
2022-10-12T21:53:51.266Z,7.28
2022-10-12T21:56:21.478Z,7.97
2022-10-12T21:58:49.447Z,1.58
2022-10-12T22:01:19.013Z,4.47
2022-10-12T22:03:46.410Z,2.60
2022-10-12T22:06:15.712Z,5.55
2022-10-12T22:08:43.620Z,3.53
2022-10-12T22:11:13.571Z,5.07
2022-10-12T22:13:40.717Z,1.35
2022-10-12T22:16:10.948Z,2.58
2022-10-12T22:18:38.144Z,2.78
2022-10-12T22:21:14.518Z,1.45
2022-10-12T22:23:42.880Z,3.70
2022-10-12T22:26:14.098Z,3.35
2022-10-12T22:28:50.827Z,3.72
2022-10-12T22:31:19.896Z,5.63
2022-10-12T22:33:46.985Z,4.32
2022-10-12T22:36:14.922Z,3.97
2022-10-12T22:38:42.446Z,3.72
2022-10-12T22:41:15.315Z,2.42
2022-10-12T22:43:46.395Z,1.85
2022-10-12T22:46:13.411Z,7.22
2022-10-12T22:48:40.433Z,4.03
2022-10-12T22:51:09.350Z,1.98
2022-10-12T22:53:36.721Z,4.75
2022-10-12T22:56:06.687Z,3.85
2022-10-12T22:58:34.988Z,3.65
2022-10-12T23:01:07.485Z,5.28
2022-10-12T23:03:35.710Z,4.07
2022-10-12T23:06:10.513Z,2.45
2022-10-12T23:08:37.831Z,2.25
2022-10-12T23:11:13.727Z,3.55
2022-10-12T23:13:41.462Z,6.10
2022-10-12T23:16:12.734Z,10.63
2022-10-12T23:18:40.271Z,1.63
2022-10-12T23:21:10.526Z,5.40
2022-10-12T23:23:38.853Z,12.38
2022-10-12T23:26:08.860Z,4.00
2022-10-12T23:28:36.305Z,4.45
2022-10-12T23:31:07.886Z,2.17
2022-10-12T23:33:35.724Z,2.40
2022-10-12T23:36:07.311Z,2.08
2022-10-12T23:38:35.824Z,2.45
2022-10-12T23:41:03.273Z,2.25
2022-10-12T23:43:31.074Z,4.18
2022-10-12T23:46:01.578Z,17.00
2022-10-12T23:48:29.171Z,2.00
2022-10-12T23:50:56.690Z,3.55
2022-10-12T23:53:25.488Z,4.35
2022-10-12T23:55:53.102Z,3.58
2022-10-12T23:58:20.872Z,3.72
